CheckWX is a tool to help pilots better visualize weather data.  It is not intended as a substitute for an official pre-flight weather briefing.

21:06:53 UTC

EGDM METAR
MoD Boscombe Down Airport
Amesbury, United Kingdom
Current

1 hour ago

EGDM 231950Z AUTO 13002KT 8000 HZ BKN210/// 07/05 Q1033
Observed
Feb-23 @ 19:50 UTC
Wind
  • 130° at 2 KTS
Visibility
7,998 meters
Flight Rules
MVFR
Conditions
Haze
Cloud Levels
  • Broken at 21,000' AGL
Temperature
C / 45°F
Dewpoint
C / 41°F
Humidity
87%
Altimeter
30.5" Hg
Pressure
1032.91 hPa
Previous

2 hours ago

EGDM 231850Z AUTO 13007KT 9000 HZ BKN230/// 07/05 Q1033
Observed
Feb-23 @ 18:50 UTC
Wind
  • 130° at 7 KTS
Visibility
8,996 meters
Flight Rules
VFR
Conditions
Haze
Cloud Levels
  • Broken at 23,000' AGL
Temperature
C / 45°F
Dewpoint
C / 41°F
Humidity
87%
Altimeter
30.5" Hg
Pressure
1032.91 hPa
Previous

3 hours ago

EGDM 231750Z AUTO 13007KT 9000 HZ FEW230/// 08/05 Q1033
Observed
Feb-23 @ 17:50 UTC
Wind
  • 130° at 7 KTS
Visibility
8,996 meters
Flight Rules
VFR
Conditions
Haze
Cloud Levels
  • Few at 23,000' AGL
Temperature
C / 46°F
Dewpoint
C / 41°F
Humidity
82%
Altimeter
30.5" Hg
Pressure
1032.91 hPa